createdAt,value
2023-11-25T00:02:08.352Z,98530.34
2023-11-25T00:05:11.143Z,98518.88
2023-11-25T00:08:13.501Z,98521.47
2023-11-25T00:11:25.267Z,98508.94
2023-11-25T00:14:30.818Z,98504.44
2023-11-25T00:17:34.244Z,98493.72
2023-11-25T00:20:38.247Z,98490.25
2023-11-25T00:23:40.994Z,98479.69
2023-11-25T00:26:43.885Z,98487.81
2023-11-25T00:29:46.583Z,98499.50
2023-11-25T00:32:50.639Z,98496.94
2023-11-25T00:35:53.411Z,98502.16
2023-11-25T00:38:55.779Z,98501.44
2023-11-25T00:41:59.366Z,98511.22
2023-11-25T00:45:01.784Z,98511.34
2023-11-25T00:48:04.777Z,98517.47
2023-11-25T00:51:07.267Z,98525.50
2023-11-25T00:54:09.993Z,98525.56
2023-11-25T00:57:12.491Z,98519.28
2023-11-25T01:00:17.883Z,98510.59
2023-11-25T01:03:20.784Z,98515.91
2023-11-25T01:06:23.752Z,98511.47
2023-11-25T01:09:29.435Z,98508.84
2023-11-25T01:12:34.704Z,98511.44
2023-11-25T01:15:37.041Z,98521.16
2023-11-25T01:18:41.616Z,98529.91
2023-11-25T01:21:44.275Z,98520.16
2023-11-25T01:24:48.959Z,98529.91
2023-11-25T01:27:52.087Z,98519.28
2023-11-25T01:30:54.753Z,98524.59
2023-11-25T01:33:58.557Z,98512.25
2023-11-25T01:37:01.281Z,98507.87
2023-11-25T01:40:06.787Z,98511.47
2023-11-25T01:43:11.852Z,98509.78
2023-11-25T01:46:27.743Z,98500.03
2023-11-25T01:49:31.036Z,98502.62
2023-11-25T01:52:35.262Z,98500.16
2023-11-25T01:55:38.014Z,98501.91
2023-11-25T01:58:40.602Z,98499.28
2023-11-25T02:01:45.335Z,98501.97
2023-11-25T02:04:48.755Z,98509.91
2023-11-25T02:07:52.021Z,98509.91
2023-11-25T02:10:55.104Z,98501.91
2023-11-25T02:13:57.500Z,98506.34
2023-11-25T02:17:01.364Z,98502.81
2023-11-25T02:20:06.225Z,98497.53
2023-11-25T02:23:18.100Z,98504.59
2023-11-25T02:26:21.952Z,98501.91
2023-11-25T02:29:24.700Z,98503.69
2023-11-25T02:32:27.171Z,98505.44
2023-11-25T02:35:29.948Z,98514.31
2023-11-25T02:38:32.431Z,98508.16
2023-11-25T02:41:36.375Z,98513.44
2023-11-25T02:44:38.926Z,98516.09
2023-11-25T02:47:41.649Z,98531.94
2023-11-25T02:50:45.058Z,98516.91
2023-11-25T02:53:50.418Z,98522.22
2023-11-25T02:56:52.815Z,98525.72
2023-11-25T02:59:56.400Z,98523.94
2023-11-25T03:03:09.582Z,98521.31
2023-11-25T03:06:12.402Z,98520.38
2023-11-25T03:09:15.865Z,98513.28
2023-11-25T03:12:18.516Z,98509.84
2023-11-25T03:15:20.994Z,98512.47
2023-11-25T03:18:23.716Z,98511.62
2023-11-25T03:21:26.195Z,98512.50
2023-11-25T03:24:29.097Z,98509.81
2023-11-25T03:27:32.153Z,98507.06
2023-11-25T03:30:34.830Z,98518.53
2023-11-25T03:33:38.012Z,98516.75
2023-11-25T03:36:41.188Z,98516.75
2023-11-25T03:39:43.671Z,98522.91
2023-11-25T03:42:46.378Z,98528.22
2023-11-25T03:45:49.250Z,98525.53
2023-11-25T03:48:51.931Z,98523.75
2023-11-25T03:51:54.410Z,98529.03
2023-11-25T03:54:57.097Z,98524.59
2023-11-25T03:58:00.474Z,98523.69
2023-11-25T04:01:03.104Z,98526.28
2023-11-25T04:04:07.415Z,98522.75
2023-11-25T04:07:09.948Z,98519.19
2023-11-25T04:10:14.102Z,98514.75
2023-11-25T04:13:16.758Z,98517.38
2023-11-25T04:16:19.469Z,98523.56
2023-11-25T04:19:22.199Z,98523.59
2023-11-25T04:22:25.286Z,98527.25
2023-11-25T04:25:27.787Z,98535.25
2023-11-25T04:28:30.874Z,98537.03
2023-11-25T04:31:33.345Z,98537.06
2023-11-25T04:34:36.185Z,98543.25
2023-11-25T04:37:38.961Z,98547.69
2023-11-25T04:40:41.796Z,98544.16
2023-11-25T04:43:44.695Z,98549.44
2023-11-25T04:46:47.742Z,98553.81
2023-11-25T04:49:50.224Z,98557.28
2023-11-25T04:52:53.105Z,98550.12
2023-11-25T04:55:55.483Z,98559.75
2023-11-25T04:58:58.182Z,98554.44
2023-11-25T05:02:00.933Z,98567.66
2023-11-25T05:05:05.052Z,98561.44
2023-11-25T05:08:07.966Z,98556.06
2023-11-25T05:11:10.734Z,98563.94
2023-11-25T05:14:13.842Z,98563.03
2023-11-25T05:17:16.596Z,98553.31
2023-11-25T05:20:19.350Z,98554.19
2023-11-25T05:23:22.025Z,98547.13
2023-11-25T05:26:25.091Z,98548.88
2023-11-25T05:29:27.787Z,98548.88
2023-11-25T05:32:30.149Z,98560.37
2023-11-25T05:35:33.210Z,98550.66
2023-11-25T05:38:35.751Z,98562.16
2023-11-25T05:41:38.730Z,98555.97
2023-11-25T05:44:41.153Z,98562.16
2023-11-25T05:47:43.841Z,98561.28
2023-11-25T05:50:46.241Z,98561.31
2023-11-25T05:53:48.971Z,98574.56
2023-11-25T05:56:52.015Z,98579.88
2023-11-25T05:59:54.703Z,98581.63
2023-11-25T06:02:57.219Z,98578.94
2023-11-25T06:05:59.909Z,98583.28
2023-11-25T06:09:02.407Z,98585.88
2023-11-25T06:12:05.574Z,98592.03
2023-11-25T06:15:08.479Z,98583.13
2023-11-25T06:18:14.768Z,98594.50
2023-11-25T06:21:17.211Z,98599.72
2023-11-25T06:24:19.830Z,98613.03
2023-11-25T06:27:23.133Z,98616.50
2023-11-25T06:30:25.852Z,98626.09
2023-11-25T06:33:30.178Z,98634.94
2023-11-25T06:36:32.909Z,98638.47
2023-11-25T06:39:36.524Z,98634.13
2023-11-25T06:42:39.710Z,98637.72
2023-11-25T06:45:43.135Z,98638.66
2023-11-25T06:48:45.799Z,98643.97
2023-11-25T06:51:49.051Z,98645.69
2023-11-25T06:54:51.746Z,98655.44
2023-11-25T06:57:54.879Z,98658.09
2023-11-25T07:00:59.890Z,98665.13
2023-11-25T07:04:05.432Z,98674.87
2023-11-25T07:07:08.451Z,98670.44
2023-11-25T07:10:11.720Z,98670.38
2023-11-25T07:13:14.765Z,98692.50
2023-11-25T07:16:17.821Z,98697.87
2023-11-25T07:19:22.083Z,98705.87
2023-11-25T07:22:24.546Z,98712.03
2023-11-25T07:25:29.260Z,98711.25
2023-11-25T07:28:31.665Z,98724.47
2023-11-25T07:31:34.489Z,98719.19
2023-11-25T07:34:37.239Z,98728.84
2023-11-25T07:37:41.125Z,98742.19
2023-11-25T07:40:43.582Z,98747.47
2023-11-25T07:43:47.743Z,98750.09
2023-11-25T07:46:50.450Z,98779.38
2023-11-25T07:49:53.173Z,98785.69
2023-11-25T07:52:55.607Z,98799.00
2023-11-25T07:55:58.591Z,98794.69
2023-11-25T07:59:03.098Z,98795.63
2023-11-25T08:02:06.059Z,98815.22
2023-11-25T08:05:09.828Z,98811.69
2023-11-25T08:08:13.211Z,98818.78
2023-11-25T08:11:23.696Z,98834.69
2023-11-25T08:14:26.500Z,98837.31
2023-11-25T08:17:31.038Z,98836.44
2023-11-25T08:20:34.490Z,98827.56
2023-11-25T08:23:37.801Z,98837.25
2023-11-25T08:26:40.203Z,98834.59
2023-11-25T08:29:43.070Z,98839.91
2023-11-25T08:32:45.624Z,98843.44
2023-11-25T08:35:48.404Z,98851.41
2023-11-25T08:38:52.897Z,98865.56
2023-11-25T08:41:56.247Z,98876.16
2023-11-25T08:45:01.302Z,98879.72
2023-11-25T08:48:07.149Z,98901.81
2023-11-25T08:51:11.960Z,98908.00
2023-11-25T08:54:15.198Z,98922.19
2023-11-25T08:57:18.186Z,98920.41
2023-11-25T09:00:21.540Z,98937.22
2023-11-25T09:03:24.348Z,98950.47
2023-11-25T09:06:27.116Z,98958.44
2023-11-25T09:09:29.573Z,98959.31
2023-11-25T09:12:33.048Z,98963.75
2023-11-25T09:15:41.649Z,98958.38
2023-11-25T09:18:45.070Z,98961.78
2023-11-25T09:21:47.496Z,98959.88
2023-11-25T09:24:50.154Z,98972.19
2023-11-25T09:27:53.579Z,98971.19
2023-11-25T09:30:56.368Z,98965.81
2023-11-25T09:34:00.094Z,98977.25
2023-11-25T09:37:03.981Z,98976.38
2023-11-25T09:40:07.928Z,98961.41
2023-11-25T09:43:10.630Z,98968.59
2023-11-25T09:46:14.558Z,98952.72
2023-11-25T09:49:17.519Z,98956.19
2023-11-25T09:52:20.800Z,98941.91
2023-11-25T09:55:24.661Z,98933.84
2023-11-25T09:58:29.620Z,98918.63
2023-11-25T10:01:33.367Z,98927.47
2023-11-25T10:04:40.084Z,98941.91
2023-11-25T10:07:43.298Z,98930.56
2023-11-25T10:11:15.715Z,98939.47
2023-11-25T10:14:22.993Z,98921.63
2023-11-25T10:17:26.029Z,98929.66
2023-11-25T10:20:28.533Z,98922.53
2023-11-25T10:23:31.228Z,98927.63
2023-11-25T10:26:33.628Z,98920.50
2023-11-25T10:29:37.386Z,98921.38
2023-11-25T10:32:39.930Z,98923.16
2023-11-25T10:35:42.728Z,98915.22
2023-11-25T10:38:45.258Z,98917.91
2023-11-25T10:41:52.480Z,98919.81
2023-11-25T10:44:55.244Z,98924.09
2023-11-25T10:47:58.631Z,98917.97
2023-11-25T10:51:01.260Z,98908.25
2023-11-25T10:54:04.532Z,98903.75
2023-11-25T10:57:07.117Z,98908.00
2023-11-25T11:00:13.329Z,98889.28
2023-11-25T11:03:17.656Z,98888.50
2023-11-25T11:06:29.738Z,98893.75
2023-11-25T11:09:34.808Z,98890.22
2023-11-25T11:12:47.934Z,98891.94
2023-11-25T11:15:53.222Z,98883.81
2023-11-25T11:18:57.013Z,98893.78
2023-11-25T11:22:06.760Z,98900.03
2023-11-25T11:25:19.349Z,98888.56
2023-11-25T11:28:24.714Z,98893.81
2023-11-25T11:31:46.347Z,98892.03
2023-11-25T11:34:49.873Z,98891.19
2023-11-25T11:37:53.160Z,98880.53
2023-11-25T11:41:07.971Z,98880.59
2023-11-25T11:44:13.351Z,98887.66
2023-11-25T11:47:15.757Z,98885.84
2023-11-25T11:50:32.700Z,98881.34
2023-11-25T11:53:35.228Z,98881.34
2023-11-25T11:56:59.602Z,98877.81
2023-11-25T12:00:15.727Z,98881.44
2023-11-25T12:03:18.902Z,98889.53
2023-11-25T12:06:24.157Z,98902.94
2023-11-25T12:09:27.212Z,98895.00
2023-11-25T12:12:29.621Z,98889.75
2023-11-25T12:15:32.729Z,98888.84
2023-11-25T12:18:36.706Z,98881.50
2023-11-25T12:21:39.665Z,98889.41
2023-11-25T12:24:44.831Z,98897.53
2023-11-25T12:27:52.033Z,98902.16
2023-11-25T12:30:54.494Z,98912.06
2023-11-25T12:34:01.492Z,98916.47
2023-11-25T12:37:04.014Z,98903.97
2023-11-25T12:40:20.182Z,98920.00
2023-11-25T12:43:22.623Z,98893.50
2023-11-25T12:46:25.371Z,98899.69
2023-11-25T12:49:27.860Z,98896.25
2023-11-25T12:52:31.450Z,98901.47
2023-11-25T12:55:44.430Z,98900.66
2023-11-25T12:58:47.693Z,98904.09
2023-11-25T13:01:50.942Z,98912.81
2023-11-25T13:04:53.960Z,98912.63
2023-11-25T13:07:56.451Z,98901.97
2023-11-25T13:11:01.183Z,98893.28
2023-11-25T13:14:04.262Z,98895.16
2023-11-25T13:17:07.306Z,98902.34
2023-11-25T13:20:12.370Z,98906.72
2023-11-25T13:23:15.575Z,98911.06
2023-11-25T13:26:18.912Z,98917.19
2023-11-25T13:29:21.654Z,98925.22
2023-11-25T13:32:24.110Z,98910.16
2023-11-25T13:35:26.896Z,98921.72
2023-11-25T13:38:30.287Z,98927.00
2023-11-25T13:41:33.071Z,98920.59
2023-11-25T13:44:36.264Z,98925.91
2023-11-25T13:47:39.948Z,98917.09
2023-11-25T13:50:42.467Z,98919.81
2023-11-25T13:53:45.235Z,98923.28
2023-11-25T13:56:48.323Z,98921.50
2023-11-25T13:59:50.976Z,98938.34
2023-11-25T14:02:53.600Z,98935.63
2023-11-25T14:05:57.320Z,98942.78
2023-11-25T14:09:00.072Z,98941.84
2023-11-25T14:12:04.144Z,98954.31
2023-11-25T14:15:08.095Z,98946.53
2023-11-25T14:18:11.906Z,98961.72
2023-11-25T14:21:14.652Z,98947.66
2023-11-25T14:24:18.107Z,98952.13
2023-11-25T14:27:20.930Z,98951.34
2023-11-25T14:30:29.898Z,98959.31
2023-11-25T14:33:32.550Z,98961.09
2023-11-25T14:36:35.338Z,98943.41
2023-11-25T14:39:47.314Z,98988.53
2023-11-25T14:42:54.002Z,98984.97
2023-11-25T14:45:56.391Z,98986.78
2023-11-25T14:49:00.071Z,98989.41
2023-11-25T14:52:02.962Z,98997.38
2023-11-25T14:55:07.532Z,99002.69
2023-11-25T14:58:11.331Z,99010.66
2023-11-25T15:01:13.979Z,98997.38
2023-11-25T15:04:16.516Z,99000.91
2023-11-25T15:07:19.945Z,99004.44
2023-11-25T15:10:26.227Z,99005.31
2023-11-25T15:13:29.229Z,99015.94
2023-11-25T15:16:31.628Z,99021.25
2023-11-25T15:19:36.631Z,99018.59
2023-11-25T15:22:39.207Z,99022.12
2023-11-25T15:25:42.176Z,99028.31
2023-11-25T15:28:45.037Z,99024.78
2023-11-25T15:31:48.278Z,99025.69
2023-11-25T15:34:50.919Z,99035.41
2023-11-25T15:37:53.875Z,99030.09
2023-11-25T15:40:56.542Z,99031.88
2023-11-25T15:43:59.276Z,99039.84
2023-11-25T15:47:02.247Z,99035.41
2023-11-25T15:50:07.031Z,99042.50
2023-11-25T15:53:09.999Z,99049.56
2023-11-25T15:56:12.986Z,99055.75
2023-11-25T15:59:15.658Z,99050.44
2023-11-25T16:02:20.177Z,99049.56
2023-11-25T16:05:23.300Z,99065.50
2023-11-25T16:08:27.061Z,99056.66
2023-11-25T16:11:29.713Z,99068.16
2023-11-25T16:14:32.113Z,99058.44
2023-11-25T16:17:35.530Z,99061.09
2023-11-25T16:20:41.398Z,99059.31
2023-11-25T16:23:45.327Z,99069.91
2023-11-25T16:26:48.283Z,99061.06
2023-11-25T16:29:54.052Z,99069.91
2023-11-25T16:33:04.793Z,99057.50
2023-11-25T16:36:08.419Z,99058.41
2023-11-25T16:39:11.555Z,99060.16
2023-11-25T16:42:14.262Z,99055.72
2023-11-25T16:45:17.347Z,99063.66
2023-11-25T16:48:22.409Z,99057.47
2023-11-25T16:51:27.588Z,99053.03
2023-11-25T16:54:30.227Z,99057.47
2023-11-25T16:57:32.974Z,99061.03
2023-11-25T17:00:35.913Z,99060.16
2023-11-25T17:03:38.961Z,99058.41
2023-11-25T17:06:42.004Z,99054.84
2023-11-25T17:09:44.751Z,99061.03
2023-11-25T17:12:47.739Z,99061.94
2023-11-25T17:15:50.342Z,99056.66
2023-11-25T17:18:54.272Z,99059.28
2023-11-25T17:21:57.104Z,99049.56
2023-11-25T17:25:00.033Z,99057.53
2023-11-25T17:28:03.261Z,99057.53
2023-11-25T17:31:06.406Z,99052.19
2023-11-25T17:34:09.297Z,99055.69
2023-11-25T17:37:14.049Z,99052.09
2023-11-25T17:40:17.002Z,99061.81
2023-11-25T17:43:20.546Z,99063.47
2023-11-25T17:46:23.246Z,99059.88
2023-11-25T17:49:26.347Z,99062.47
2023-11-25T17:52:29.362Z,99072.09
2023-11-25T17:55:32.062Z,99069.44
2023-11-25T17:58:35.177Z,99068.47
2023-11-25T18:01:37.979Z,99063.03
2023-11-25T18:04:41.244Z,99066.50
2023-11-25T18:07:45.186Z,99061.28
2023-11-25T18:10:47.984Z,99055.19
2023-11-25T18:13:50.519Z,99061.47
2023-11-25T18:16:55.353Z,99056.22
2023-11-25T18:19:57.931Z,99062.38
2023-11-25T18:23:00.682Z,99046.53
2023-11-25T18:26:03.478Z,99051.84
2023-11-25T18:29:06.930Z,99062.41
2023-11-25T18:32:09.911Z,99059.81
2023-11-25T18:35:13.162Z,99062.50
2023-11-25T18:38:15.849Z,99067.75
2023-11-25T18:41:18.643Z,99063.34
2023-11-25T18:44:21.467Z,99067.84
2023-11-25T18:47:24.634Z,99067.94
2023-11-25T18:50:28.983Z,99061.78
2023-11-25T18:53:33.104Z,99067.94
2023-11-25T18:56:37.143Z,99070.56
2023-11-25T18:59:45.448Z,99076.72
2023-11-25T19:02:48.933Z,99076.59
2023-11-25T19:05:52.193Z,99073.06
2023-11-25T19:08:54.897Z,99064.19
2023-11-25T19:11:57.726Z,99073.88
2023-11-25T19:15:00.359Z,99068.59
2023-11-25T19:18:03.813Z,99071.22
2023-11-25T19:21:06.572Z,99066.84
2023-11-25T19:24:09.512Z,99072.16
2023-11-25T19:27:11.917Z,99064.16
2023-11-25T19:30:14.790Z,99072.03
2023-11-25T19:33:17.303Z,99067.56
2023-11-25T19:36:20.019Z,99070.13
2023-11-25T19:39:22.520Z,99074.53
2023-11-25T19:42:25.538Z,99072.75
2023-11-25T19:45:27.972Z,99071.84
2023-11-25T19:48:30.752Z,99083.31
2023-11-25T19:51:33.414Z,99082.44
2023-11-25T19:54:36.261Z,99079.75
2023-11-25T19:57:39.354Z,99079.72
2023-11-25T20:00:49.381Z,99085.87
2023-11-25T20:03:59.750Z,99081.44
2023-11-25T20:07:02.747Z,99093.78
2023-11-25T20:10:07.217Z,99090.25
2023-11-25T20:13:09.982Z,99098.22
2023-11-25T20:16:12.702Z,99081.47
2023-11-25T20:19:15.971Z,99080.63
2023-11-25T20:22:21.336Z,99086.81
2023-11-25T20:25:23.942Z,99090.34
2023-11-25T20:28:26.776Z,99086.81
2023-11-25T20:31:29.817Z,99099.19
2023-11-25T20:34:32.486Z,99093.03
2023-11-25T20:37:35.038Z,99095.66
2023-11-25T20:40:37.980Z,99096.56
2023-11-25T20:43:40.521Z,99090.38
2023-11-25T20:46:43.250Z,99094.78
2023-11-25T20:49:47.498Z,99096.53
2023-11-25T20:52:50.434Z,99094.84
2023-11-25T20:55:53.096Z,99094.87
2023-11-25T20:58:55.838Z,99094.06
2023-11-25T21:01:58.534Z,99094.97
2023-11-25T21:05:02.309Z,99088.81
2023-11-25T21:08:05.388Z,99088.78
2023-11-25T21:11:08.147Z,99081.72
2023-11-25T21:14:11.556Z,99092.34
2023-11-25T21:17:14.389Z,99094.13
2023-11-25T21:20:17.428Z,99087.06
2023-11-25T21:23:20.222Z,99086.19
2023-11-25T21:26:22.618Z,99095.94
2023-11-25T21:29:25.766Z,99096.81
2023-11-25T21:32:28.913Z,99093.28
2023-11-25T21:35:31.813Z,99080.94
2023-11-25T21:38:34.302Z,99087.13
2023-11-25T21:41:36.970Z,99092.47
2023-11-25T21:44:39.421Z,99098.69
2023-11-25T21:47:42.073Z,99080.13
2023-11-25T21:50:44.468Z,99087.22
2023-11-25T21:53:47.075Z,99086.34
2023-11-25T21:56:49.822Z,99088.09
2023-11-25T21:59:53.309Z,99094.25
2023-11-25T22:02:56.886Z,99096.03
2023-11-25T22:06:01.029Z,99099.50
2023-11-25T22:09:03.581Z,99097.75
2023-11-25T22:12:07.521Z,99087.19
2023-11-25T22:15:11.241Z,99097.72
2023-11-25T22:18:14.683Z,99096.91
2023-11-25T22:21:21.215Z,99095.13
2023-11-25T22:24:26.645Z,99099.50
2023-11-25T22:27:32.507Z,99095.09
2023-11-25T22:30:35.327Z,99094.16
2023-11-25T22:33:38.362Z,99112.72
2023-11-25T22:36:40.989Z,99112.81
2023-11-25T22:39:44.871Z,99111.94
2023-11-25T22:42:56.640Z,99107.53
2023-11-25T22:45:59.000Z,99100.50
2023-11-25T22:49:01.629Z,99092.56
2023-11-25T22:52:04.342Z,99094.34
2023-11-25T22:55:07.161Z,99098.78
2023-11-25T22:58:09.730Z,99088.19
2023-11-25T23:01:16.855Z,99097.91
2023-11-25T23:04:19.372Z,99097.03
2023-11-25T23:07:22.015Z,99086.44
2023-11-25T23:10:24.412Z,99090.88
2023-11-25T23:13:27.117Z,99091.78
2023-11-25T23:16:29.511Z,99090.03
2023-11-25T23:19:32.277Z,99094.44
2023-11-25T23:22:34.705Z,99098.88
2023-11-25T23:25:37.373Z,99099.78
2023-11-25T23:28:39.785Z,99093.59
2023-11-25T23:31:42.504Z,99094.47
2023-11-25T23:34:45.069Z,99091.84
2023-11-25T23:37:47.756Z,99088.28
2023-11-25T23:40:50.403Z,99090.06
2023-11-25T23:43:53.063Z,99091.78
2023-11-25T23:46:55.480Z,99090.00
2023-11-25T23:49:58.284Z,99091.78
2023-11-25T23:53:00.754Z,99098.84
2023-11-25T23:56:03.662Z,99091.78
2023-11-25T23:59:06.213Z,99089.16
